createdAt,value
2022-08-18T00:00:20.541Z,96.90
2022-08-18T00:03:00.716Z,96.90
2022-08-18T00:05:38.475Z,96.90
2022-08-18T00:08:16.045Z,97.40
2022-08-18T00:11:11.053Z,97.00
2022-08-18T00:13:46.001Z,97.00
2022-08-18T00:16:20.889Z,97.70
2022-08-18T00:18:55.778Z,97.20
2022-08-18T00:21:31.219Z,97.30
2022-08-18T00:24:06.402Z,97.60
2022-08-18T00:26:43.083Z,97.30
2022-08-18T00:29:29.593Z,97.40
2022-08-18T00:32:18.732Z,97.40
2022-08-18T00:34:59.409Z,97.30
2022-08-18T00:37:34.857Z,97.90
2022-08-18T00:40:13.228Z,97.80
2022-08-18T00:42:58.246Z,97.30
2022-08-18T00:45:44.621Z,97.60
2022-08-18T00:48:23.912Z,98.10
2022-08-18T00:51:15.901Z,98.00
2022-08-18T00:58:10.275Z,97.40
2022-08-18T01:00:53.868Z,97.10
2022-08-18T01:03:36.630Z,97.30
2022-08-18T01:06:20.518Z,96.90
2022-08-18T01:08:56.512Z,97.10
2022-08-18T01:11:32.003Z,97.10
2022-08-18T01:14:29.217Z,97.20
2022-08-18T01:17:39.444Z,97.10
2022-08-18T01:20:39.610Z,97.10
2022-08-18T01:23:23.746Z,97.30
2022-08-18T01:26:04.680Z,97.60
2022-08-18T01:29:29.973Z,97.80
2022-08-18T01:32:41.165Z,97.60
2022-08-18T01:35:50.011Z,97.20
2022-08-18T01:38:34.231Z,97.40
2022-08-18T01:41:26.676Z,97.50
2022-08-18T01:44:11.345Z,97.70
2022-08-18T01:46:53.800Z,97.20
2022-08-18T01:49:34.000Z,97.20
2022-08-18T01:52:10.245Z,97.50
2022-08-18T01:54:51.185Z,97.50
2022-08-18T01:57:28.117Z,97.80
2022-08-18T02:00:12.473Z,97.50
2022-08-18T02:02:58.672Z,97.40
2022-08-18T02:05:50.272Z,97.40
2022-08-18T02:08:34.050Z,97.50
2022-08-18T02:11:20.413Z,97.70
2022-08-18T02:13:59.044Z,97.80
2022-08-18T02:16:41.564Z,98.10
2022-08-18T02:19:22.862Z,98.00
2022-08-18T02:22:01.132Z,98.00
2022-08-18T02:24:42.500Z,98.60
2022-08-18T02:27:19.749Z,97.80
2022-08-18T02:29:58.470Z,98.30
2022-08-18T02:32:34.909Z,98.60
2022-08-18T02:35:16.259Z,97.90
2022-08-18T02:37:52.022Z,98.30
2022-08-18T02:40:40.931Z,98.90
2022-08-18T02:43:27.258Z,98.20
2022-08-18T02:46:02.491Z,98.50
2022-08-18T02:48:37.850Z,98.50
2022-08-18T02:51:52.272Z,98.40
2022-08-18T02:54:29.114Z,98.40
2022-08-18T02:57:11.844Z,98.10
2022-08-18T02:59:48.927Z,98.20
2022-08-18T03:02:25.698Z,98.60
2022-08-18T03:05:03.908Z,98.60
2022-08-18T03:07:40.138Z,97.90
2022-08-18T03:10:32.483Z,97.80
2022-08-18T03:13:12.644Z,98.00
2022-08-18T03:15:56.996Z,97.70
2022-08-18T03:18:34.434Z,98.30
2022-08-18T03:22:27.640Z,98.00
2022-08-18T03:25:16.413Z,98.20
2022-08-18T03:27:57.686Z,97.90
2022-08-18T03:30:34.882Z,98.30
2022-08-18T03:33:30.029Z,98.00
2022-08-18T03:36:07.089Z,98.60
2022-08-18T03:38:50.986Z,98.00
2022-08-18T03:41:56.843Z,98.10
2022-08-18T03:44:39.721Z,97.90
2022-08-18T03:47:17.740Z,98.00
2022-08-18T03:49:55.664Z,97.90
2022-08-18T03:52:31.680Z,98.00
2022-08-18T03:55:11.410Z,97.90
2022-08-18T03:58:14.766Z,98.10
2022-08-18T04:05:41.873Z,98.30
2022-08-18T04:09:44.527Z,98.10
2022-08-18T04:25:32.543Z,98.00
2022-08-18T04:28:24.863Z,98.00
2022-08-18T04:35:15.500Z,97.90
2022-08-18T04:42:34.285Z,98.00
2022-08-18T04:50:21.237Z,98.10
2022-08-18T04:56:51.040Z,98.20
2022-08-18T05:04:30.495Z,98.20
2022-08-18T05:15:07.326Z,98.10
2022-08-18T05:22:04.890Z,97.70
2022-08-18T05:25:24.743Z,97.70
2022-08-18T05:27:59.195Z,97.60
2022-08-18T05:30:34.543Z,97.50
2022-08-18T05:33:41.035Z,97.60
2022-08-18T05:36:38.939Z,97.70
2022-08-18T05:39:25.888Z,97.60
2022-08-18T05:43:09.409Z,98.60
2022-08-18T05:50:15.046Z,97.50
2022-08-18T05:53:03.758Z,97.60
2022-08-18T05:56:26.111Z,97.50
2022-08-18T06:03:20.741Z,97.10
2022-08-18T06:10:21.389Z,97.00
2022-08-18T06:17:38.678Z,97.00
2022-08-18T06:21:36.868Z,96.70
2022-08-18T06:33:01.993Z,95.40
2022-08-18T06:39:53.086Z,95.10
2022-08-18T06:46:48.169Z,95.10
2022-08-18T06:50:07.761Z,94.70
2022-08-18T06:52:55.978Z,94.70
2022-08-18T06:59:42.936Z,94.80
2022-08-18T07:06:33.457Z,94.90
2022-08-18T07:13:30.087Z,94.80
2022-08-18T07:20:24.374Z,94.70
2022-08-18T07:28:15.644Z,94.40
2022-08-18T07:31:13.833Z,94.10
2022-08-18T07:38:38.583Z,94.10
2022-08-18T07:45:25.199Z,94.60
2022-08-18T08:05:06.925Z,95.00
2022-08-18T08:12:01.606Z,95.20
2022-08-18T08:15:41.902Z,95.20
2022-08-18T08:22:40.091Z,95.00
2022-08-18T08:29:35.207Z,94.90
2022-08-18T08:37:16.266Z,96.20
2022-08-18T08:40:53.682Z,96.10
2022-08-18T08:48:55.865Z,95.40
2022-08-18T08:59:59.653Z,93.60
2022-08-18T09:03:47.135Z,93.20
2022-08-18T09:19:42.622Z,92.00
2022-08-18T09:22:54.703Z,91.60
2022-08-18T09:29:54.281Z,91.30
2022-08-18T09:33:18.496Z,91.30
2022-08-18T09:36:25.917Z,90.10
2022-08-18T09:40:44.436Z,90.40
2022-08-18T09:51:41.329Z,91.10
2022-08-18T09:54:25.325Z,91.20
2022-08-18T09:57:25.736Z,90.80
2022-08-18T10:00:28.081Z,90.70
2022-08-18T10:03:26.016Z,90.80
2022-08-18T10:11:01.538Z,89.90
2022-08-18T10:17:52.329Z,90.50
2022-08-18T10:21:03.647Z,90.60
2022-08-18T10:24:29.443Z,90.40
2022-08-18T10:27:04.006Z,90.80
2022-08-18T10:29:52.629Z,90.90
2022-08-18T10:33:16.798Z,91.40
2022-08-18T10:36:04.994Z,90.50
2022-08-18T10:38:52.304Z,90.00
2022-08-18T10:41:31.790Z,90.50
2022-08-18T10:44:28.614Z,91.20
2022-08-18T10:47:34.166Z,91.00
2022-08-18T11:06:21.938Z,89.00
2022-08-18T11:09:01.576Z,88.70
2022-08-18T11:11:53.025Z,89.60
2022-08-18T11:15:21.277Z,90.70
2022-08-18T11:18:21.377Z,88.80
2022-08-18T11:29:35.093Z,88.80
2022-08-18T11:33:12.103Z,88.00
2022-08-18T11:44:21.696Z,88.90
2022-08-18T11:47:14.898Z,87.20
2022-08-18T11:50:33.737Z,87.20
2022-08-18T11:53:58.210Z,86.70
2022-08-18T11:56:38.046Z,85.90
2022-08-18T11:59:52.581Z,86.20
2022-08-18T12:02:41.237Z,85.70
2022-08-18T12:05:54.062Z,86.90
2022-08-18T12:08:58.038Z,86.30
2022-08-18T12:11:54.860Z,85.80
2022-08-18T12:15:03.616Z,84.30
2022-08-18T12:24:57.196Z,85.50
2022-08-18T12:28:03.925Z,84.70
2022-08-18T12:35:02.066Z,82.90
2022-08-18T12:38:39.441Z,82.00
2022-08-18T12:41:42.458Z,81.40
2022-08-18T12:44:18.396Z,82.50
2022-08-18T12:47:06.568Z,84.60
2022-08-18T12:49:41.926Z,85.80
2022-08-18T12:52:17.293Z,83.40
2022-08-18T12:54:55.830Z,86.30
2022-08-18T12:57:51.747Z,83.80
2022-08-18T13:00:34.832Z,85.00
2022-08-18T13:03:28.360Z,85.00
2022-08-18T13:06:10.142Z,83.70
2022-08-18T13:12:55.040Z,84.20
2022-08-18T13:15:34.182Z,82.60
2022-08-18T13:18:29.130Z,82.40
2022-08-18T13:21:18.650Z,80.80
2022-08-18T13:23:58.633Z,83.40
2022-08-18T13:26:37.922Z,84.10
2022-08-18T13:29:41.860Z,81.70
2022-08-18T13:32:22.260Z,81.40
2022-08-18T13:34:56.551Z,80.00
2022-08-18T13:37:32.131Z,81.10
2022-08-18T13:40:08.118Z,80.80
2022-08-18T13:44:02.143Z,79.70
2022-08-18T13:46:46.073Z,79.20
2022-08-18T13:49:34.019Z,80.90
2022-08-18T13:52:33.007Z,81.80
2022-08-18T13:55:13.652Z,80.70
2022-08-18T13:57:50.611Z,80.20
2022-08-18T14:04:44.411Z,79.50
2022-08-18T14:07:27.374Z,78.70
2022-08-18T14:10:08.000Z,78.70
2022-08-18T14:13:06.932Z,79.10
2022-08-18T14:16:01.758Z,78.70
2022-08-18T14:18:40.186Z,80.10
2022-08-18T14:21:41.073Z,79.20
2022-08-18T14:28:28.532Z,78.90
2022-08-18T14:35:33.553Z,76.80
2022-08-18T14:43:07.967Z,76.60
2022-08-18T14:45:45.855Z,77.10
2022-08-18T14:48:24.933Z,77.90
2022-08-18T14:51:11.592Z,78.10
2022-08-18T14:57:53.502Z,77.50
2022-08-18T15:00:53.340Z,76.50
2022-08-18T15:04:56.450Z,78.30
2022-08-18T15:11:45.290Z,77.50
2022-08-18T15:14:40.279Z,77.40
2022-08-18T15:21:49.576Z,78.50
2022-08-18T15:24:52.453Z,79.00
2022-08-18T15:27:42.936Z,78.40
2022-08-18T15:30:19.510Z,78.20
2022-08-18T15:32:54.591Z,79.70
2022-08-18T15:35:29.086Z,78.70
2022-08-18T15:38:07.100Z,79.60
2022-08-18T15:41:00.113Z,80.00
2022-08-18T15:43:46.306Z,78.30
2022-08-18T15:50:35.157Z,78.30
2022-08-18T15:57:38.776Z,78.00
2022-08-18T16:09:18.073Z,77.10
2022-08-18T16:12:11.622Z,76.60
2022-08-18T16:18:17.560Z,78.10
2022-08-18T16:29:17.475Z,76.60
2022-08-18T16:40:21.269Z,78.10
2022-08-18T16:44:12.173Z,77.70
2022-08-18T16:47:06.459Z,77.60
2022-08-18T16:49:55.809Z,78.30
2022-08-18T16:52:42.375Z,78.30
2022-08-18T16:55:47.617Z,78.00
2022-08-18T16:59:36.025Z,78.80
2022-08-18T17:02:39.982Z,79.20
2022-08-18T17:05:18.087Z,79.70
2022-08-18T17:08:00.050Z,80.50
2022-08-18T17:10:40.872Z,81.20
2022-08-18T17:13:18.234Z,80.70
2022-08-18T17:15:52.856Z,81.80
2022-08-18T17:18:28.798Z,81.60
2022-08-18T17:21:06.210Z,81.10
2022-08-18T17:27:50.017Z,81.30
2022-08-18T17:30:50.261Z,82.20
2022-08-18T17:33:30.163Z,82.60
2022-08-18T17:40:51.250Z,81.20
2022-08-18T17:47:58.720Z,80.20
2022-08-18T17:51:37.604Z,80.80
2022-08-18T17:55:45.014Z,81.30
2022-08-18T17:58:29.458Z,81.50
2022-08-18T18:01:12.851Z,82.10
2022-08-18T18:04:00.566Z,82.60
2022-08-18T18:06:41.664Z,84.50
2022-08-18T18:09:41.779Z,84.10
2022-08-18T18:16:28.018Z,83.90
2022-08-18T18:19:14.419Z,84.30
2022-08-18T18:22:07.149Z,83.90
2022-08-18T18:24:52.863Z,85.10
2022-08-18T18:27:57.957Z,84.60
2022-08-18T18:30:34.306Z,84.60
2022-08-18T18:33:17.345Z,85.80
2022-08-18T18:35:57.665Z,84.60
2022-08-18T18:39:34.238Z,86.20
2022-08-18T18:50:55.537Z,85.10
2022-08-18T18:54:13.503Z,85.50
2022-08-18T18:57:15.390Z,85.40
2022-08-18T19:00:07.406Z,85.60
2022-08-18T19:02:54.458Z,87.50
2022-08-18T19:06:07.034Z,87.80
2022-08-18T19:08:59.723Z,86.10
2022-08-18T19:12:11.636Z,86.80
2022-08-18T19:19:36.923Z,86.20
2022-08-18T19:23:34.179Z,86.20
2022-08-18T19:27:44.707Z,86.50
2022-08-18T19:30:31.111Z,86.50
2022-08-18T19:33:26.105Z,87.80
2022-08-18T19:37:24.525Z,86.70
2022-08-18T19:48:44.278Z,85.90
2022-08-18T19:56:29.787Z,86.40
2022-08-18T20:00:06.480Z,86.30
2022-08-18T20:03:42.926Z,86.40
2022-08-18T20:10:52.148Z,86.90
2022-08-18T20:13:35.433Z,86.90
2022-08-18T20:16:44.697Z,86.90
2022-08-18T20:20:10.061Z,86.80
2022-08-18T20:22:48.523Z,86.90
2022-08-18T20:25:47.136Z,86.80
2022-08-18T20:28:41.830Z,86.80
2022-08-18T20:31:24.835Z,87.40
2022-08-18T20:34:14.284Z,87.50
2022-08-18T20:36:51.874Z,87.10
2022-08-18T20:39:43.407Z,88.20
2022-08-18T20:42:56.142Z,86.60
2022-08-18T20:45:47.729Z,86.40
2022-08-18T20:48:39.735Z,87.30
2022-08-18T20:51:25.423Z,86.70
2022-08-18T20:54:13.228Z,87.00
2022-08-18T20:57:04.284Z,87.50
2022-08-18T20:59:54.069Z,87.40
2022-08-18T21:07:39.988Z,87.10
2022-08-18T21:10:52.960Z,87.40
2022-08-18T21:13:54.289Z,87.40
2022-08-18T21:16:39.150Z,88.10
2022-08-18T21:19:30.856Z,88.30
2022-08-18T21:22:46.364Z,88.70
2022-08-18T21:26:29.063Z,88.80
2022-08-18T21:29:17.587Z,89.70
2022-08-18T21:32:48.550Z,90.60
2022-08-18T21:36:19.123Z,91.20
2022-08-18T21:40:01.890Z,91.80
2022-08-18T21:42:45.295Z,92.20
2022-08-18T21:45:47.639Z,92.90
2022-08-18T21:48:26.044Z,93.40
2022-08-18T21:51:06.678Z,94.00
2022-08-18T21:53:49.214Z,93.70
2022-08-18T21:56:28.082Z,93.70
2022-08-18T22:00:01.317Z,94.70
2022-08-18T22:02:36.745Z,95.00
2022-08-18T22:05:58.001Z,94.90
2022-08-18T22:08:51.439Z,94.80
2022-08-18T22:12:01.512Z,94.90
2022-08-18T22:14:54.980Z,95.10
2022-08-18T22:18:07.487Z,94.80
2022-08-18T22:21:02.975Z,95.10
2022-08-18T22:23:58.668Z,95.50
2022-08-18T22:26:39.184Z,96.40
2022-08-18T22:30:28.270Z,96.50
2022-08-18T22:33:02.690Z,96.30
2022-08-18T22:36:03.880Z,96.30
2022-08-18T22:38:59.439Z,96.40
2022-08-18T22:42:39.958Z,96.50
2022-08-18T22:45:40.342Z,96.60
2022-08-18T22:48:17.294Z,96.70
2022-08-18T22:55:13.139Z,96.60
2022-08-18T22:58:05.768Z,96.60
2022-08-18T23:00:52.755Z,96.50
2022-08-18T23:04:10.546Z,96.80
2022-08-18T23:07:04.297Z,96.70
2022-08-18T23:09:40.705Z,96.80
2022-08-18T23:12:36.534Z,97.50
2022-08-18T23:16:31.360Z,97.00
2022-08-18T23:19:18.855Z,96.80
2022-08-18T23:22:58.411Z,96.80
2022-08-18T23:25:41.501Z,96.90
2022-08-18T23:28:36.113Z,97.00
2022-08-18T23:31:12.005Z,97.20
2022-08-18T23:38:21.014Z,97.00
2022-08-18T23:45:54.511Z,97.30
2022-08-18T23:52:43.482Z,97.50
2022-08-18T23:56:20.983Z,97.90
2022-08-18T23:59:06.696Z,98.00
